Zhong Shan Men — 3FLE6 — position and weather

sailwx.info

Track history (hours):
 
Tides and Currents Weather Stations Pressure Air Temp Water Temp Dewpoint Dewpoint Depression Visibility Wind Speed Wind Dir Waves Ship Positions

Zhong Shan Men

Last reported at 2017-Feb-11 03:33 UTC. Time now 2017-Feb-26 21:34 UTC.
Position N 01°54' E 102°24'.
Warning: this ship's position is 15 days out of date.

Length 189 m; draft 10.1 m.

Type: Cargo ship. MMSI: 351339000.

Date/timePositionNaut miles runAvg speedWind from/ knotsBaromVisibWave heightAir tempDewpointWater temp
2017-Feb-11 03:33N 01°54' E 102°24'6813.0
2017-Feb-10 22:18N 01°17' E 103°22'1115.1
2017-Feb-10 21:33N 01°12' E 103°32'1414.4
2017-Feb-10 20:33N 01°09' E 103°46'10 9.6
2017-Feb-10 19:33N 01°15' E 103°54'0 0.1
2017-Feb-10 18:29N 01°15' E 103°53'0 0.0
2017-Feb-10 17:32N 01°15' E 103°53'0 0.0
2017-Feb-10 16:26N 01°15' E 103°53'0 0.0
2017-Feb-10 15:23N 01°15' E 103°53'0 0.0
2017-Feb-10 14:17N 01°15' E 103°53'0 0.0
2017-Feb-10 13:30N 01°15' E 103°53'0 0.0
2017-Feb-10 12:33N 01°15' E 103°53'0 0.1
2017-Feb-10 11:33N 01°15' E 103°53'2 1.7
2017-Feb-10 10:33N 01°14' E 103°54'4 4.2
2017-Feb-10 09:30N 01°15' E 103°58'  
2017-Feb-03 12:13N 31°06' E 122°27'6 9.5
2017-Feb-03 11:33N 31°06' E 122°20'1211.7
2017-Feb-03 10:34N 31°12' E 122°08'1010.0
2017-Feb-03 09:34N 31°15' E 121°57'1010.0
2017-Feb-03 08:34N 31°18' E 121°46'8 8.0
2017-Feb-03 07:34N 31°22' E 121°38'8 8.1
2017-Feb-03 06:34N 31°26' E 121°29'8 8.3
2017-Feb-03 05:33N 31°31' E 121°22'1111.2
2017-Feb-03 04:33N 31°39' E 121°13'0 0.3
2017-Feb-03 03:28N 31°39' E 121°13'0 0.0
2017-Feb-03 02:31N 31°39' E 121°13'0 0.0
2017-Feb-01 20:31N 31°39' E 121°13'0 0.0
2017-Feb-01 19:31N 31°39' E 121°13'0 0.0
2017-Feb-01 18:31N 31°39' E 121°13'0 0.0
2017-Feb-01 17:28N 31°39' E 121°13'0 0.0
2017-Feb-01 12:25N 31°39' E 121°13'3 3.2
2017-Feb-01 11:33N 31°38' E 121°15'9 9.3
2017-Feb-01 10:33N 31°31' E 121°23'9 8.9
2017-Feb-01 09:30N 31°25' E 121°32'  
Track history (hours):
 
Tides and Currents Weather Stations Pressure Air Temp Water Temp Dewpoint Dewpoint Depression Visibility Wind Speed Wind Dir Waves Ship Positions

Zhong Shan Men

Last reported at 2017-Feb-11 03:33 UTC. Time now 2017-Feb-26 21:34 UTC.
Position N 01°54' E 102°24'.
Warning: this ship's position is 15 days out of date.

Length 189 m; draft 10.1 m.

Type: Cargo ship. MMSI: 351339000.

Date/timePositionNaut miles runAvg speedWind from/ knotsBaromVisibWave heightAir tempDewpointWater temp
2017-Feb-11 03:33N 01°54' E 102°24'6813.0
2017-Feb-10 22:18N 01°17' E 103°22'1115.1
2017-Feb-10 21:33N 01°12' E 103°32'1414.4
2017-Feb-10 20:33N 01°09' E 103°46'10 9.6
2017-Feb-10 19:33N 01°15' E 103°54'0 0.1
2017-Feb-10 18:29N 01°15' E 103°53'0 0.0
2017-Feb-10 17:32N 01°15' E 103°53'0 0.0
2017-Feb-10 16:26N 01°15' E 103°53'0 0.0
2017-Feb-10 15:23N 01°15' E 103°53'0 0.0
2017-Feb-10 14:17N 01°15' E 103°53'0 0.0
2017-Feb-10 13:30N 01°15' E 103°53'0 0.0
2017-Feb-10 12:33N 01°15' E 103°53'0 0.1
2017-Feb-10 11:33N 01°15' E 103°53'2 1.7
2017-Feb-10 10:33N 01°14' E 103°54'4 4.2
2017-Feb-10 09:30N 01°15' E 103°58'  
2017-Feb-03 12:13N 31°06' E 122°27'6 9.5
2017-Feb-03 11:33N 31°06' E 122°20'1211.7
2017-Feb-03 10:34N 31°12' E 122°08'1010.0
2017-Feb-03 09:34N 31°15' E 121°57'1010.0
2017-Feb-03 08:34N 31°18' E 121°46'8 8.0
2017-Feb-03 07:34N 31°22' E 121°38'8 8.1
2017-Feb-03 06:34N 31°26' E 121°29'8 8.3
2017-Feb-03 05:33N 31°31' E 121°22'1111.2
2017-Feb-03 04:33N 31°39' E 121°13'0 0.3
2017-Feb-03 03:28N 31°39' E 121°13'0 0.0
2017-Feb-03 02:31N 31°39' E 121°13'0 0.0
2017-Feb-01 20:31N 31°39' E 121°13'0 0.0
2017-Feb-01 19:31N 31°39' E 121°13'0 0.0
2017-Feb-01 18:31N 31°39' E 121°13'0 0.0
2017-Feb-01 17:28N 31°39' E 121°13'0 0.0
2017-Feb-01 12:25N 31°39' E 121°13'3 3.2
2017-Feb-01 11:33N 31°38' E 121°15'9 9.3
2017-Feb-01 10:33N 31°31' E 121°23'9 8.9
2017-Feb-01 09:30N 31°25' E 121°32'  

Dump ship's entire track history